Time;durP1;ratioP1;P1;durP2;ratioP2;P2;SDS_P1;SDS_P2;PMS_P1;PMS_P2;Temp;Humidity;BMP_temperature;BMP_pressure;BME280_temperature;BME280_humidity;BME280_pressure;Samples;Min_cycle;Max_cycle;Signal;HPM_P1;HPM_P2
2021/09/30 00:01:17;;;;;;;6.10;1.33;;;10.10;99.90;;;;;;5101508;28;20043;-60
2021/09/30 00:03:43;;;;;;;10.90;2.25;;;10.40;99.90;;;;;;5097157;28;20097;-60
2021/09/30 00:06:09;;;;;;;7.18;1.80;;;10.60;99.90;;;;;;5104497;28;20123;-60
2021/09/30 00:08:34;;;;;;;6.15;1.58;;;10.80;99.90;;;;;;5103307;28;20059;-60
2021/09/30 00:11:07;;;;;;;7.63;1.38;;;10.80;99.90;;;;;;5091330;28;20044;-60
2021/09/30 00:32:38;;;;;;;9.27;1.80;;;10.80;99.90;;;;;;5100868;28;20047;-60
2021/09/30 00:46:09;;;;;;;7.95;1.10;;;10.00;99.90;;;;;;5082112;28;20044;-60
2021/09/30 00:48:50;;;;;;;8.48;1.70;;;10.10;99.90;;;;;;5080920;28;20048;-60
2021/09/30 01:23:23;;;;;;;13.85;2.10;;;9.30;99.90;;;;;;5066639;28;20044;-60
2021/09/30 02:18:22;;;;;;;13.05;1.48;;;8.70;99.90;;;;;;5086964;28;20052;-60
2021/09/30 02:29:15;;;;;;;6.10;1.60;;;9.60;99.90;;;;;;5100692;28;20059;-60
2021/09/30 02:34:56;;;;;;;11.45;2.22;;;9.60;99.90;;;;;;5087554;28;20067;-60
2021/09/30 02:59:38;;;;;;;14.32;2.67;;;9.00;99.90;;;;;;5099253;28;20055;-60
2021/09/30 03:02:05;;;;;;;11.40;1.90;;;9.00;99.90;;;;;;5091535;28;20048;-60
2021/09/30 03:04:32;;;;;;;16.27;2.40;;;9.00;99.90;;;;;;5086394;28;20084;-60
2021/09/30 03:07:00;;;;;;;11.60;2.28;;;9.10;99.90;;;;;;5087541;28;20040;-60
2021/09/30 03:09:41;;;;;;;10.63;1.83;;;9.20;99.90;;;;;;5085233;28;20052;-60
2021/09/30 03:12:16;;;;;;;14.20;1.83;;;9.20;99.90;;;;;;5091273;28;20038;-60
2021/09/30 03:14:46;;;;;;;7.82;1.70;;;9.10;99.90;;;;;;5093024;28;20173;-60
2021/09/30 03:17:19;;;;;;;12.98;1.95;;;9.10;99.90;;;;;;5091424;28;20048;-60
2021/09/30 03:19:59;;;;;;;10.88;2.33;;;9.00;99.90;;;;;;5092141;28;20101;-60
2021/09/30 03:22:27;;;;;;;9.55;1.85;;;8.90;99.90;;;;;;5092180;28;20048;-60
2021/09/30 03:24:54;;;;;;;9.70;2.15;;;8.90;99.90;;;;;;5087489;28;20082;-60
2021/09/30 03:27:20;;;;;;;13.27;2.08;;;8.80;99.90;;;;;;5089198;28;20043;-60
2021/09/30 03:29:46;;;;;;;10.10;1.88;;;8.80;99.90;;;;;;5091618;28;20046;-60
2021/09/30 03:32:13;;;;;;;8.48;1.63;;;8.70;99.90;;;;;;5101672;28;20044;-60
2021/09/30 03:34:39;;;;;;;9.63;2.05;;;8.80;99.90;;;;;;5090637;28;20051;-60
2021/09/30 03:37:05;;;;;;;23.33;3.08;;;8.80;99.90;;;;;;5085489;28;20064;-60
2021/09/30 03:39:31;;;;;;;5.55;1.00;;;9.00;99.90;;;;;;5095520;28;20048;-60
2021/09/30 03:41:58;;;;;;;5.95;0.90;;;9.30;99.90;;;;;;5088088;28;20066;-60
2021/09/30 03:44:24;;;;;;;6.50;2.00;;;9.30;99.90;;;;;;5091503;28;20046;-60
2021/09/30 03:46:52;;;;;;;9.43;1.58;;;9.30;99.90;;;;;;5085820;28;20066;-60
2021/09/30 03:49:26;;;;;;;15.43;1.55;;;9.30;99.90;;;;;;5091507;28;20528;-60
2021/09/30 03:57:21;;;;;;;12.15;1.40;;;9.30;99.90;;;;;;5094286;28;20044;-60
2021/09/30 03:59:47;;;;;;;7.63;1.70;;;9.40;99.90;;;;;;5098429;28;20040;-60
2021/09/30 04:02:13;;;;;;;11.40;1.45;;;9.40;99.90;;;;;;5087735;28;20100;-60
2021/09/30 04:04:39;;;;;;;11.07;2.20;;;9.40;99.90;;;;;;5090934;28;20045;-60
2021/09/30 04:07:07;;;;;;;12.07;2.50;;;9.40;99.90;;;;;;5089868;28;20075;-60
2021/09/30 04:09:36;;;;;;;8.85;1.70;;;9.40;99.90;;;;;;5092433;28;20601;-60
2021/09/30 04:12:06;;;;;;;15.55;2.20;;;9.30;99.90;;;;;;5096026;28;20121;-60
2021/09/30 04:14:32;;;;;;;9.02;1.52;;;9.40;99.90;;;;;;5101414;28;20056;-60
2021/09/30 04:16:58;;;;;;;10.25;2.22;;;9.40;99.90;;;;;;5100019;28;20064;-60
2021/09/30 04:19:24;;;;;;;8.38;1.33;;;9.40;99.90;;;;;;5103437;28;20062;-60
2021/09/30 04:21:52;;;;;;;4.93;1.15;;;9.40;99.90;;;;;;5082793;28;20111;-60
2021/09/30 04:24:20;;;;;;;7.53;1.48;;;9.30;99.90;;;;;;5096887;28;20044;-60
2021/09/30 04:26:47;;;;;;;7.32;1.52;;;9.40;99.90;;;;;;5090097;28;20033;-60
2021/09/30 04:29:13;;;;;;;5.03;1.08;;;9.40;99.90;;;;;;5101928;28;20357;-60
2021/09/30 04:31:39;;;;;;;7.28;1.38;;;9.40;99.90;;;;;;5102084;28;20052;-60
2021/09/30 04:34:05;;;;;;;8.45;1.60;;;9.30;99.90;;;;;;5095500;28;20040;-60
2021/09/30 04:36:31;;;;;;;9.50;1.73;;;9.20;99.90;;;;;;5085486;28;20040;-60
2021/09/30 04:38:57;;;;;;;8.48;2.17;;;9.10;99.90;;;;;;5086978;28;20530;-60
2021/09/30 04:41:23;;;;;;;4.63;0.90;;;9.10;99.90;;;;;;5083691;28;20044;-60
2021/09/30 04:43:49;;;;;;;16.05;1.98;;;9.00;99.90;;;;;;5093307;28;20044;-60
2021/09/30 04:46:17;;;;;;;8.07;2.08;;;9.10;99.90;;;;;;5097583;28;20093;-60
2021/09/30 04:48:43;;;;;;;8.88;1.90;;;9.10;99.90;;;;;;5087061;28;20047;-60
2021/09/30 04:51:09;;;;;;;11.07;1.92;;;9.20;99.90;;;;;;5087978;28;20051;-60
2021/09/30 04:53:36;;;;;;;11.20;2.60;;;9.20;99.90;;;;;;5084774;28;20033;-60
2021/09/30 04:56:02;;;;;;;7.78;1.60;;;9.20;99.90;;;;;;5086590;28;20059;-60
2021/09/30 04:58:28;;;;;;;6.60;1.80;;;9.20;99.90;;;;;;5088481;28;20048;-60
2021/09/30 05:00:54;;;;;;;5.20;1.70;;;9.30;99.90;;;;;;5095587;28;20062;-60
2021/09/30 05:03:19;;;;;;;4.25;1.35;;;9.50;99.90;;;;;;5098290;28;20044;-60
2021/09/30 05:05:45;;;;;;;10.52;1.10;;;9.60;99.90;;;;;;5084063;28;20040;-60
2021/09/30 05:08:11;;;;;;;6.65;1.40;;;9.70;99.90;;;;;;5093873;28;20107;-60
2021/09/30 05:10:39;;;;;;;12.02;1.75;;;9.70;99.90;;;;;;5089240;28;20040;-60
2021/09/30 05:13:06;;;;;;;9.30;1.35;;;9.70;99.90;;;;;;5092496;28;20062;-60
2021/09/30 05:15:33;;;;;;;3.47;1.00;;;9.70;99.90;;;;;;5093779;28;20112;-60
2021/09/30 05:18:00;;;;;;;8.00;1.37;;;9.70;99.90;;;;;;5093731;28;20048;-60
2021/09/30 05:20:26;;;;;;;8.35;1.60;;;9.70;99.90;;;;;;5096278;28;20067;-60
2021/09/30 05:22:52;;;;;;;6.68;1.20;;;9.60;99.90;;;;;;5100724;28;20047;-60
2021/09/30 05:25:18;;;;;;;4.38;1.33;;;9.60;99.90;;;;;;5089670;28;20048;-60
2021/09/30 05:27:43;;;;;;;8.32;1.77;;;9.60;99.90;;;;;;5096720;28;20074;-60
2021/09/30 05:30:10;;;;;;;11.55;1.52;;;9.60;99.90;;;;;;5081394;28;20434;-60
2021/09/30 05:32:36;;;;;;;9.55;1.73;;;9.70;99.90;;;;;;5095852;28;20215;-60
2021/09/30 05:35:02;;;;;;;7.22;1.40;;;9.80;99.90;;;;;;5097577;28;20053;-60
2021/09/30 05:37:29;;;;;;;8.80;1.38;;;9.80;99.90;;;;;;5087524;28;20052;-60
2021/09/30 05:39:55;;;;;;;6.80;1.23;;;9.70;99.90;;;;;;5096472;28;20048;-60
2021/09/30 05:42:23;;;;;;;9.52;1.88;;;9.80;99.90;;;;;;5083016;28;20036;-60
2021/09/30 05:44:51;;;;;;;7.70;1.67;;;9.90;99.90;;;;;;5103671;28;20074;-60
2021/09/30 05:47:17;;;;;;;6.93;1.42;;;9.90;99.90;;;;;;5103594;28;20040;-60
2021/09/30 05:49:43;;;;;;;8.15;1.25;;;9.80;99.90;;;;;;5098497;28;20044;-60
2021/09/30 05:52:09;;;;;;;8.32;1.70;;;9.80;99.90;;;;;;5101745;28;20137;-60
2021/09/30 05:54:35;;;;;;;7.97;1.83;;;9.70;99.90;;;;;;5103731;28;20043;-61
2021/09/30 05:57:01;;;;;;;11.52;1.55;;;9.80;99.90;;;;;;5079362;28;20098;-60
2021/09/30 05:59:27;;;;;;;10.57;1.80;;;9.80;99.90;;;;;;5086152;28;20059;-60
2021/09/30 06:12:37;;;;;;;8.45;1.35;;;9.80;99.90;;;;;;5101425;28;20044;-60
2021/09/30 06:15:11;;;;;;;10.02;2.03;;;9.80;99.90;;;;;;5100191;28;20104;-60
2021/09/30 06:17:38;;;;;;;10.13;1.80;;;9.60;99.90;;;;;;5092613;28;20048;-60
2021/09/30 06:20:05;;;;;;;9.73;2.00;;;9.60;99.90;;;;;;5105408;28;20044;-60
2021/09/30 06:22:31;;;;;;;9.90;1.88;;;9.60;99.90;;;;;;5102698;28;20846;-60
2021/09/30 06:24:57;;;;;;;9.88;2.10;;;9.50;99.90;;;;;;5093462;28;20032;-59
2021/09/30 06:27:22;;;;;;;6.95;1.67;;;9.50;99.90;;;;;;5074992;28;20055;-60
2021/09/30 06:29:48;;;;;;;9.25;1.70;;;9.50;99.90;;;;;;5080832;28;20040;-60
2021/09/30 06:32:14;;;;;;;16.05;2.10;;;9.60;99.90;;;;;;5103093;28;20040;-60
2021/09/30 06:34:41;;;;;;;8.15;2.05;;;9.60;99.90;;;;;;5080944;28;20036;-60
2021/09/30 06:37:09;;;;;;;11.07;1.95;;;9.60;99.90;;;;;;5096446;28;20064;-60
2021/09/30 06:39:37;;;;;;;10.75;2.78;;;9.50;99.90;;;;;;5078305;28;20067;-60
2021/09/30 06:42:03;;;;;;;6.85;2.05;;;9.50;99.90;;;;;;5083084;28;20549;-60
2021/09/30 06:44:28;;;;;;;7.47;1.98;;;9.50;99.90;;;;;;5078425;28;20048;-60
2021/09/30 06:46:54;;;;;;;8.85;1.95;;;9.50;99.90;;;;;;5105168;28;20067;-60
2021/09/30 06:49:20;;;;;;;10.90;2.05;;;9.50;99.90;;;;;;5097114;28;20075;-60
2021/09/30 06:51:46;;;;;;;14.15;2.40;;;9.50;99.90;;;;;;5102787;28;20052;-60
2021/09/30 06:54:11;;;;;;;7.20;1.90;;;9.60;99.90;;;;;;5102341;28;20042;-60
2021/09/30 06:56:37;;;;;;;10.52;2.30;;;9.60;99.90;;;;;;5091209;28;20055;-60
2021/09/30 06:59:15;;;;;;;14.18;1.98;;;9.60;99.90;;;;;;5098404;28;20036;-60
2021/09/30 07:01:40;;;;;;;25.95;3.53;;;9.70;99.90;;;;;;5093188;28;20040;-60
2021/09/30 07:04:07;;;;;;;12.23;2.45;;;9.90;99.90;;;;;;5096796;28;20095;-61
2021/09/30 07:06:33;;;;;;;10.75;1.70;;;10.00;99.90;;;;;;5103365;28;20051;-60
2021/09/30 07:08:58;;;;;;;10.23;2.00;;;10.10;99.90;;;;;;5082322;28;20044;-61
2021/09/30 07:11:24;;;;;;;9.95;1.88;;;10.20;99.90;;;;;;5077201;28;20083;-65
2021/09/30 07:13:50;;;;;;;8.52;1.85;;;10.30;99.90;;;;;;5087414;28;20048;-65
2021/09/30 07:16:15;;;;;;;19.92;2.33;;;10.30;99.90;;;;;;5100815;28;20052;-68
2021/09/30 07:18:41;;;;;;;18.30;4.13;;;10.50;99.90;;;;;;5102432;28;20036;-63
2021/09/30 07:21:07;;;;;;;11.88;3.47;;;10.50;99.90;;;;;;5094991;28;20440;-62
2021/09/30 07:23:33;;;;;;;18.88;1.95;;;10.60;99.90;;;;;;5100445;28;20044;-62
2021/09/30 07:25:59;;;;;;;11.25;2.45;;;10.60;99.90;;;;;;5095783;28;20040;-62
2021/09/30 07:28:37;;;;;;;9.15;2.30;;;10.80;99.90;;;;;;5098081;28;20420;-62
2021/09/30 07:31:04;;;;;;;6.50;1.38;;;10.90;99.90;;;;;;5095703;28;20094;-63
2021/09/30 07:33:30;;;;;;;12.30;2.17;;;11.00;99.90;;;;;;5098996;28;20102;-62
2021/09/30 07:35:56;;;;;;;8.07;1.92;;;11.00;99.90;;;;;;5098651;28;20645;-62
2021/09/30 07:38:23;;;;;;;8.00;1.92;;;11.00;99.90;;;;;;5097940;28;20048;-62
2021/09/30 07:40:51;;;;;;;12.23;2.10;;;11.10;99.90;;;;;;5100659;28;20047;-61
2021/09/30 07:43:17;;;;;;;9.30;1.75;;;11.20;99.90;;;;;;5097099;28;20039;-62
2021/09/30 07:45:43;;;;;;;9.57;2.28;;;11.30;99.90;;;;;;5097563;28;20070;-62
2021/09/30 07:48:09;;;;;;;10.43;1.73;;;;;;;;;;5100822;28;20032;-61
2021/09/30 07:50:36;;;;;;;10.80;2.20;;;11.40;99.90;;;;;;5096712;28;20412;-63
2021/09/30 07:53:02;;;;;;;8.77;2.60;;;11.50;99.90;;;;;;5102455;28;20048;-64
2021/09/30 07:55:27;;;;;;;12.77;1.70;;;11.60;99.90;;;;;;5101078;28;20054;-63
2021/09/30 07:57:53;;;;;;;13.15;3.20;;;11.70;99.90;;;;;;5097113;28;20032;-62
2021/09/30 08:00:19;;;;;;;13.52;1.70;;;11.80;99.90;;;;;;5098023;28;20040;-63
2021/09/30 08:02:44;;;;;;;12.55;2.38;;;11.80;99.90;;;;;;5101687;28;20040;-63
2021/09/30 08:05:10;;;;;;;9.85;2.38;;;12.00;99.90;;;;;;5097730;28;20044;-62
2021/09/30 08:07:37;;;;;;;15.15;2.33;;;12.10;99.90;;;;;;5101142;28;20126;-62
2021/09/30 08:10:06;;;;;;;8.88;2.00;;;12.20;99.90;;;;;;5096185;28;20048;-63
2021/09/30 08:12:32;;;;;;;13.07;1.52;;;12.30;99.90;;;;;;5095455;28;20060;-62
2021/09/30 08:14:58;;;;;;;10.00;1.60;;;12.40;99.90;;;;;;5082012;28;20048;-62
2021/09/30 08:17:23;;;;;;;11.15;1.70;;;12.50;99.90;;;;;;5096115;28;20599;-62
2021/09/30 08:19:49;;;;;;;7.40;1.50;;;12.60;99.90;;;;;;5098321;28;20450;-61
2021/09/30 08:22:15;;;;;;;11.05;1.60;;;12.70;99.90;;;;;;5096874;28;20058;-61
2021/09/30 08:24:41;;;;;;;10.00;1.90;;;12.70;99.90;;;;;;5078058;28;20047;-61
2021/09/30 08:27:06;;;;;;;7.93;1.40;;;12.80;99.90;;;;;;5083403;28;20578;-61
2021/09/30 08:29:32;;;;;;;10.40;2.50;;;12.90;99.90;;;;;;5101438;28;20745;-61
2021/09/30 08:31:58;;;;;;;8.57;2.40;;;13.00;99.90;;;;;;5096964;28;20091;-61
2021/09/30 08:34:24;;;;;;;12.32;1.67;;;13.10;99.90;;;;;;5098058;28;20052;-61
2021/09/30 08:36:50;;;;;;;9.77;2.95;;;13.30;99.90;;;;;;5099947;28;20051;-61
2021/09/30 08:39:16;;;;;;;14.25;2.15;;;13.30;99.90;;;;;;5099731;28;20070;-61
2021/09/30 08:41:42;;;;;;;18.00;2.33;;;13.50;99.90;;;;;;5083283;28;20496;-61
2021/09/30 08:44:08;;;;;;;7.07;1.48;;;13.60;99.90;;;;;;5101338;28;20065;-61
2021/09/30 08:46:35;;;;;;;10.13;2.60;;;13.60;99.90;;;;;;5100475;28;20380;-61
2021/09/30 08:49:01;;;;;;;8.07;1.88;;;13.70;99.90;;;;;;5081644;28;20040;-61
2021/09/30 08:51:28;;;;;;;9.82;1.70;;;13.70;99.90;;;;;;5075346;28;20052;-61
2021/09/30 08:53:53;;;;;;;11.82;2.08;;;13.80;99.90;;;;;;5101020;28;20044;-60
2021/09/30 08:56:19;;;;;;;12.40;2.95;;;13.80;99.90;;;;;;5101488;28;20051;-60
2021/09/30 08:58:45;;;;;;;8.77;2.55;;;13.90;99.90;;;;;;5101061;28;20051;-60
2021/09/30 09:01:13;;;;;;;10.25;1.85;;;13.70;99.90;;;;;;5099621;28;20055;-60
2021/09/30 09:03:46;;;;;;;;;;;13.70;99.90;;;;;;5099046;28;20040;-60
2021/09/30 09:06:31;;;;;;;6.65;1.92;;;13.60;99.90;;;;;;5100915;28;19927;-60
2021/09/30 09:09:23;;;;;;;12.20;2.13;;;13.70;99.90;;;;;;5098339;28;20061;-60
2021/09/30 09:11:51;;;;;;;14.55;2.55;;;13.70;99.90;;;;;;5104418;28;20129;-60
2021/09/30 09:14:30;;;;;;;12.90;2.03;;;13.80;99.90;;;;;;5095727;28;20044;-60
2021/09/30 09:17:01;;;;;;;7.93;1.52;;;13.80;99.90;;;;;;5102050;28;20044;-60
2021/09/30 09:19:34;;;;;;;8.02;1.58;;;13.80;99.90;;;;;;5102989;28;20036;-60
2021/09/30 09:22:09;;;;;;;11.68;1.85;;;13.90;99.90;;;;;;5081036;28;20048;-60
2021/09/30 09:24:35;;;;;;;10.13;1.90;;;13.90;99.90;;;;;;5101974;28;20055;-60
2021/09/30 09:27:01;;;;;;;11.20;1.52;;;14.00;99.90;;;;;;5104905;28;20047;-60
2021/09/30 09:29:31;;;;;;;5.57;1.95;;;13.90;99.90;;;;;;5104317;28;20032;-60
2021/09/30 09:32:01;;;;;;;6.03;1.92;;;13.70;99.90;;;;;;5083628;28;20075;-60
2021/09/30 09:34:36;;;;;;;6.78;1.40;;;13.60;99.90;;;;;;5106394;28;20040;-60
2021/09/30 09:37:32;;;;;;;6.25;1.27;;;13.70;99.90;;;;;;5105267;28;20044;-60
2021/09/30 09:39:59;;;;;;;7.07;1.27;;;14.00;99.90;;;;;;5099009;28;20487;-60
2021/09/30 09:42:30;;;;;;;10.77;1.25;;;14.40;99.90;;;;;;5087787;28;20048;-60
2021/09/30 09:45:06;;;;;;;5.18;1.33;;;14.50;99.90;;;;;;5105552;28;20040;-60
2021/09/30 09:47:37;;;;;;;7.32;1.45;;;14.40;99.90;;;;;;5100402;28;20113;-60
2021/09/30 09:50:12;;;;;;;7.03;1.33;;;14.40;99.90;;;;;;5103555;28;20116;-60
2021/09/30 09:52:51;;;;;;;9.25;1.20;;;14.40;99.90;;;;;;5074890;28;20049;-60
2021/09/30 09:55:23;;;;;;;5.30;1.35;;;14.40;99.90;;;;;;5098459;28;20145;-60
2021/09/30 09:57:59;;;;;;;7.45;1.63;;;14.40;99.90;;;;;;5096228;28;20043;-60
2021/09/30 10:00:26;;;;;;;10.32;1.67;;;14.40;99.90;;;;;;5100464;28;20056;-60
2021/09/30 10:02:52;;;;;;;5.10;1.65;;;14.40;99.90;;;;;;5109376;28;20044;-60
2021/09/30 10:05:21;;;;;;;5.78;1.40;;;14.40;99.90;;;;;;5083894;28;20056;-60
2021/09/30 10:07:47;;;;;;;8.73;1.67;;;14.50;99.90;;;;;;5082681;28;20396;-60
2021/09/30 10:10:15;;;;;;;6.30;1.50;;;14.40;99.90;;;;;;5100507;28;20109;-60
2021/09/30 10:12:42;;;;;;;;;;;14.30;99.90;;;;;;5105621;28;20117;-60
2021/09/30 10:15:08;;;;;;;8.27;1.40;;;14.40;99.90;;;;;;5080192;28;19981;-60
2021/09/30 10:17:34;;;;;;;6.85;1.77;;;14.50;99.90;;;;;;5100590;28;20593;-60
2021/09/30 10:19:59;;;;;;;5.07;1.55;;;14.70;99.90;;;;;;5096611;28;20072;-60
2021/09/30 10:22:26;;;;;;;7.28;1.42;;;14.70;99.90;;;;;;5102989;28;20044;-60
2021/09/30 10:24:53;;;;;;;9.95;1.10;;;14.70;99.90;;;;;;5086252;28;20139;-60
2021/09/30 10:27:20;;;;;;;8.85;1.38;;;14.60;99.90;;;;;;5096677;28;20075;-60
2021/09/30 10:29:48;;;;;;;12.35;2.13;;;14.60;99.90;;;;;;5094412;28;20040;-60
2021/09/30 10:32:19;;;;;;;6.13;1.30;;;14.70;99.90;;;;;;5094477;28;20123;-60
2021/09/30 10:34:47;;;;;;;7.15;0.98;;;14.80;99.90;;;;;;5092920;28;20036;-60
2021/09/30 10:37:19;;;;;;;7.22;1.70;;;14.80;99.90;;;;;;5092154;28;20044;-65
2021/09/30 10:40:05;;;;;;;11.13;1.67;;;14.90;99.90;;;;;;5084330;28;20082;-63
2021/09/30 10:42:55;;;;;;;8.25;1.88;;;15.20;99.90;;;;;;5098688;28;20040;-65
2021/09/30 10:45:26;;;;;;;7.15;1.65;;;15.40;99.90;;;;;;5102191;28;20052;-65
2021/09/30 10:47:53;;;;;;;10.15;1.63;;;15.30;99.90;;;;;;5097424;28;20215;-67
2021/09/30 10:50:39;;;;;;;5.85;2.30;;;15.30;99.90;;;;;;5102579;28;21175;-61
2021/09/30 10:53:05;;;;;;;7.47;1.58;;;15.20;99.90;;;;;;5094368;28;20036;-61
2021/09/30 10:55:32;;;;;;;8.73;1.63;;;15.30;99.90;;;;;;5096139;28;20181;-60
2021/09/30 10:57:59;;;;;;;4.35;1.20;;;15.50;99.90;;;;;;5092252;28;20040;-61
2021/09/30 11:00:33;;;;;;;10.35;1.45;;;15.50;99.90;;;;;;5100099;28;20138;-61
2021/09/30 11:03:02;;;;;;;5.95;1.33;;;15.70;99.90;;;;;;5102537;28;20072;-61
2021/09/30 11:05:28;;;;;;;2.28;1.08;;;15.50;99.90;;;;;;5089664;28;20408;-61
2021/09/30 11:08:22;;;;;;;9.80;1.33;;;15.50;99.90;;;;;;5099371;28;20051;-61
2021/09/30 11:11:06;;;;;;;8.55;1.35;;;15.60;99.90;;;;;;5090146;28;20092;-61
2021/09/30 11:13:49;;;;;;;4.38;1.08;;;15.40;99.90;;;;;;5097272;28;20044;-61
2021/09/30 11:16:17;;;;;;;3.88;1.30;;;15.30;99.90;;;;;;5093547;28;20036;-60
2021/09/30 11:18:55;;;;;;;6.07;1.42;;;15.30;99.90;;;;;;5097003;28;20052;-61
2021/09/30 11:21:34;;;;;;;4.57;1.00;;;15.30;99.90;;;;;;5096236;28;20147;-61
2021/09/30 11:24:03;;;;;;;;;;;15.40;99.90;;;;;;5094558;28;20585;-61
2021/09/30 11:26:54;;;;;;;5.32;1.00;;;15.50;99.90;;;;;;5092612;28;19920;-61
2021/09/30 11:29:19;;;;;;;2.47;0.82;;;15.60;99.90;;;;;;5079130;28;20055;-61
2021/09/30 11:31:46;;;;;;;5.93;0.73;;;15.70;99.90;;;;;;5096517;28;20047;-61
2021/09/30 11:34:25;;;;;;;6.22;1.10;;;15.90;98.60;;;;;;5094105;28;20040;-61
2021/09/30 11:36:53;;;;;;;3.25;1.00;;;16.50;98.40;;;;;;5097758;28;20043;-61
2021/09/30 11:39:19;;;;;;;6.85;1.50;;;16.70;99.90;;;;;;5097869;28;20058;-61
2021/09/30 11:41:47;;;;;;;12.35;2.08;;;17.00;99.90;;;;;;5091399;28;20470;-61
2021/09/30 11:44:19;;;;;;;3.55;1.08;;;16.80;99.90;;;;;;5091196;28;20097;-61
2021/09/30 11:46:51;;;;;;;5.35;0.93;;;16.90;99.90;;;;;;5090577;28;20048;-62
2021/09/30 11:49:18;;;;;;;12.35;1.50;;;17.20;96.10;;;;;;5094619;28;20036;-62
2021/09/30 11:51:48;;;;;;;6.00;1.35;;;17.60;99.90;;;;;;5094242;28;20046;-62
2021/09/30 11:54:23;;;;;;;6.53;1.10;;;17.60;98.90;;;;;;5093334;28;20049;-61
2021/09/30 11:56:51;;;;;;;5.78;1.15;;;17.80;99.90;;;;;;5095911;28;20523;-61
2021/09/30 11:59:19;;;;;;;5.82;1.20;;;17.40;94.30;;;;;;5098552;28;20047;-59
2021/09/30 12:01:47;;;;;;;8.07;1.13;;;17.20;98.20;;;;;;5098621;28;20040;-60
2021/09/30 12:04:38;;;;;;;6.25;0.90;;;17.00;99.90;;;;;;5099791;28;20048;-59
2021/09/30 12:07:04;;;;;;;4.80;1.45;;;17.10;99.90;;;;;;5095396;28;20044;-59
2021/09/30 12:09:34;;;;;;;6.07;0.65;;;17.00;97.60;;;;;;5094470;28;20044;-59
2021/09/30 12:12:04;;;;;;;5.32;0.80;;;17.00;99.10;;;;;;5098911;28;20043;-58
2021/09/30 12:14:39;;;;;;;6.15;1.35;;;17.00;99.60;;;;;;5100582;28;20127;-58
2021/09/30 12:17:12;;;;;;;6.00;1.30;;;17.10;97.30;;;;;;5097893;28;20059;-62
2021/09/30 12:19:39;;;;;;;5.70;1.17;;;17.00;93.60;;;;;;5102036;28;20032;-62
2021/09/30 12:22:14;;;;;;;5.22;1.20;;;17.10;95.40;;;;;;5100395;28;20040;-63
2021/09/30 12:24:45;;;;;;;2.95;1.10;;;17.40;97.30;;;;;;5098779;28;20065;-62
2021/09/30 12:27:12;;;;;;;6.43;1.90;;;17.30;94.60;;;;;;5101076;28;20052;-62
2021/09/30 12:29:43;;;;;;;3.83;0.90;;;17.50;94.90;;;;;;5099591;28;20512;-62
2021/09/30 12:32:13;;;;;;;7.38;1.13;;;17.60;98.90;;;;;;5100754;28;20067;-62
2021/09/30 12:34:39;;;;;;;5.88;1.65;;;17.20;93.40;;;;;;5098790;28;20064;-62
2021/09/30 12:37:05;;;;;;;7.63;1.25;;;17.00;99.60;;;;;;5102253;28;20071;-63
2021/09/30 12:39:33;;;;;;;6.25;1.48;;;16.90;96.50;;;;;;5099070;28;20044;-63
2021/09/30 12:42:16;;;;;;;4.38;1.52;;;16.70;99.90;;;;;;5094858;28;20075;-61
2021/09/30 12:44:48;;;;;;;4.53;1.42;;;16.60;97.80;;;;;;5078385;28;20040;-62
2021/09/30 12:47:34;;;;;;;6.70;1.10;;;16.80;98.70;;;;;;5085754;28;20055;-62
2021/09/30 12:50:04;;;;;;;8.52;1.23;;;16.50;98.80;;;;;;5091570;28;20152;-60
2021/09/30 12:52:30;;;;;;;8.10;1.50;;;16.60;99.10;;;;;;5093768;28;20048;-60
2021/09/30 12:54:56;;;;;;;4.45;0.93;;;16.40;99.90;;;;;;5092542;28;20050;-60
2021/09/30 12:57:30;;;;;;;7.38;1.42;;;16.30;99.90;;;;;;5100912;28;20111;-59
2021/09/30 13:00:08;;;;;;;7.13;1.80;;;16.50;99.90;;;;;;5083810;28;20044;-60
2021/09/30 13:02:34;;;;;;;8.38;1.33;;;16.50;99.90;;;;;;5101910;28;20036;-59
2021/09/30 13:05:00;;;;;;;10.93;1.92;;;16.70;99.90;;;;;;5097373;28;20047;-61
2021/09/30 13:07:40;;;;;;;6.18;1.45;;;16.70;99.90;;;;;;5098229;28;20090;-59
2021/09/30 13:10:06;;;;;;;8.05;2.03;;;16.50;99.90;;;;;;5098794;28;20059;-59
2021/09/30 13:12:32;;;;;;;9.90;1.50;;;16.30;99.90;;;;;;5099496;28;20606;-59
2021/09/30 13:14:58;;;;;;;6.82;1.73;;;16.10;99.90;;;;;;5095487;28;20036;-60
2021/09/30 13:17:30;;;;;;;6.85;1.90;;;15.90;99.90;;;;;;5099448;28;20123;-60
2021/09/30 13:20:01;;;;;;;7.15;1.52;;;15.80;99.90;;;;;;5094987;28;20041;-60
2021/09/30 13:22:37;;;;;;;7.50;2.00;;;15.60;99.90;;;;;;5099894;28;20059;-60
2021/09/30 13:25:06;;;;;;;8.20;1.48;;;15.50;99.90;;;;;;5094792;28;20051;-60
2021/09/30 13:27:35;;;;;;;13.77;1.70;;;15.60;99.90;;;;;;5102201;28;20051;-60
2021/09/30 13:30:04;;;;;;;7.07;1.50;;;15.50;99.90;;;;;;5084104;28;20075;-60
2021/09/30 13:32:30;;;;;;;7.45;1.50;;;15.60;99.90;;;;;;5095502;28;20059;-60
2021/09/30 13:34:56;;;;;;;9.93;1.58;;;15.70;99.90;;;;;;5102060;28;20040;-60
2021/09/30 13:37:25;;;;;;;6.80;1.38;;;15.60;99.90;;;;;;5102351;28;20078;-60
2021/09/30 13:39:56;;;;;;;7.75;1.98;;;15.60;99.90;;;;;;5101068;28;20564;-60
2021/09/30 13:42:22;;;;;;;7.60;1.65;;;15.70;99.90;;;;;;5095056;28;20050;-60
2021/09/30 13:44:48;;;;;;;7.40;1.60;;;15.50;99.90;;;;;;5100132;28;20093;-60
2021/09/30 13:47:13;;;;;;;10.40;1.60;;;15.30;99.90;;;;;;5102273;28;20036;-59
2021/09/30 13:49:39;;;;;;;5.63;1.50;;;15.20;99.90;;;;;;5101120;28;20036;-59
2021/09/30 13:52:05;;;;;;;8.38;2.08;;;15.20;99.90;;;;;;5095995;28;20055;-59
2021/09/30 13:54:31;;;;;;;5.28;1.92;;;15.20;99.90;;;;;;5095708;28;20048;-60
2021/09/30 13:56:57;;;;;;;10.48;1.85;;;15.30;99.90;;;;;;5092187;28;20174;-59
2021/09/30 13:59:22;;;;;;;4.38;1.13;;;15.30;99.90;;;;;;5100959;28;20047;-59
2021/09/30 14:01:48;;;;;;;6.70;1.77;;;15.20;99.90;;;;;;5101044;28;20051;-59
2021/09/30 14:04:13;;;;;;;4.70;1.15;;;15.30;99.90;;;;;;5104625;28;20063;-59
2021/09/30 14:06:39;;;;;;;8.25;1.88;;;15.10;99.90;;;;;;5070944;28;20048;-59
2021/09/30 14:09:05;;;;;;;15.80;1.92;;;15.10;99.90;;;;;;5100011;28;20095;-63
2021/09/30 14:11:30;;;;;;;11.80;2.22;;;15.20;99.90;;;;;;5103694;28;20048;-61
2021/09/30 14:13:56;;;;;;;8.20;1.52;;;15.00;99.90;;;;;;5104424;28;20040;-60
2021/09/30 14:16:23;;;;;;;9.00;1.60;;;15.00;99.90;;;;;;5102717;28;20043;-60
2021/09/30 14:18:50;;;;;;;7.43;1.92;;;14.90;99.90;;;;;;5094740;28;20039;-60
2021/09/30 14:21:16;;;;;;;8.93;2.00;;;14.70;99.90;;;;;;5082955;28;20298;-60
2021/09/30 14:23:43;;;;;;;5.97;1.65;;;14.60;99.90;;;;;;5094911;28;20309;-60
2021/09/30 14:26:09;;;;;;;10.20;1.80;;;14.50;99.90;;;;;;5103608;28;20080;-60
2021/09/30 14:28:34;;;;;;;7.32;1.38;;;14.40;99.90;;;;;;5103412;28;20482;-61
2021/09/30 14:31:01;;;;;;;7.18;2.13;;;14.20;99.90;;;;;;5097390;28;20525;-60
2021/09/30 14:33:29;;;;;;;7.20;1.77;;;14.00;99.90;;;;;;5097014;28;20040;-61
2021/09/30 14:35:55;;;;;;;5.95;1.48;;;13.90;99.90;;;;;;5099478;28;20084;-61
2021/09/30 14:38:22;;;;;;;6.00;1.38;;;13.80;99.90;;;;;;5104992;28;20077;-61
2021/09/30 14:40:50;;;;;;;5.65;1.60;;;13.80;99.90;;;;;;5100873;28;20097;-61
2021/09/30 14:43:19;;;;;;;;;;;13.70;99.90;;;;;;5098143;28;20143;-61
2021/09/30 14:45:45;;;;;;;12.32;1.85;;;13.70;99.90;;;;;;5099882;28;19923;-61
2021/09/30 14:48:12;;;;;;;4.90;1.50;;;13.70;99.90;;;;;;5096781;28;20264;-62
2021/09/30 14:50:39;;;;;;;4.30;1.13;;;13.60;99.90;;;;;;5100209;28;20044;-61
2021/09/30 14:53:05;;;;;;;7.85;1.88;;;13.60;99.90;;;;;;5078627;28;20048;-61
2021/09/30 14:55:31;;;;;;;7.97;1.35;;;13.60;99.90;;;;;;5098656;28;20055;-61
2021/09/30 14:57:56;;;;;;;9.70;1.90;;;13.50;99.90;;;;;;5098054;28;20036;-60
2021/09/30 15:00:22;;;;;;;8.65;1.60;;;13.50;99.90;;;;;;5101613;28;20101;-61
2021/09/30 15:02:48;;;;;;;6.35;1.60;;;13.50;99.90;;;;;;5100829;28;20032;-61
2021/09/30 15:05:14;;;;;;;5.90;1.83;;;13.60;99.90;;;;;;5102611;28;20040;-60
2021/09/30 15:07:41;;;;;;;7.93;1.83;;;13.70;99.90;;;;;;5100165;28;20036;-61
2021/09/30 15:10:07;;;;;;;6.88;1.45;;;13.70;99.90;;;;;;5087460;28;20127;-61
2021/09/30 15:12:33;;;;;;;8.63;1.70;;;13.70;99.90;;;;;;5069126;28;20075;-60
2021/09/30 15:14:58;;;;;;;8.63;1.77;;;13.70;99.90;;;;;;5098381;28;20033;-60
2021/09/30 15:17:34;;;;;;;7.80;1.98;;;13.70;99.90;;;;;;5102075;28;20048;-61
2021/09/30 15:20:13;;;;;;;8.20;1.95;;;13.70;99.90;;;;;;5096971;28;20138;-61
2021/09/30 15:22:40;;;;;;;5.40;1.65;;;13.70;99.90;;;;;;5090362;28;20082;-60
2021/09/30 15:25:08;;;;;;;6.07;1.60;;;13.80;99.90;;;;;;5096589;28;20113;-60
2021/09/30 15:27:35;;;;;;;;;;;13.70;99.90;;;;;;5093956;28;20398;-60
2021/09/30 15:30:00;;;;;;;8.85;1.92;;;13.70;99.90;;;;;;5093365;28;19920;-60
2021/09/30 15:32:26;;;;;;;8.27;1.75;;;13.70;99.90;;;;;;5091616;28;20051;-60
2021/09/30 15:34:52;;;;;;;6.90;1.73;;;13.70;99.90;;;;;;5097470;28;20069;-60
2021/09/30 15:37:18;;;;;;;7.60;1.88;;;13.70;99.90;;;;;;5094042;28;20056;-60
2021/09/30 15:39:43;;;;;;;9.02;1.70;;;13.70;99.90;;;;;;5099012;28;20052;-60